Time;durP1;ratioP1;P1;durP2;ratioP2;P2;SDS_P1;SDS_P2;PMS_P1;PMS_P2;Temp;Humidity;BMP_temperature;BMP_pressure;BME280_temperature;BME280_humidity;BME280_pressure;Samples;Min_cycle;Max_cycle;Signal;HPM_P1;HPM_P2
2023/08/10 00:02:08;;;;;;;7.50;6.30;;;14.50;99.90;;;;;;5032246;28;20032;-79
2023/08/10 00:04:34;;;;;;;10.68;6.72;;;14.50;99.90;;;;;;5031792;28;20045;-79
2023/08/10 00:06:59;;;;;;;7.85;6.10;;;14.50;99.90;;;;;;5031025;28;20025;-79
2023/08/10 00:09:25;;;;;;;8.20;6.20;;;14.50;99.90;;;;;;5032555;28;20132;-79
2023/08/10 00:11:51;;;;;;;7.30;6.45;;;14.50;99.90;;;;;;5031029;28;20037;-79
2023/08/10 00:14:17;;;;;;;6.88;6.18;;;14.50;99.90;;;;;;5031164;28;20098;-78
2023/08/10 00:16:43;;;;;;;6.07;5.43;;;14.40;99.90;;;;;;5030959;28;20054;-79
2023/08/10 00:19:09;;;;;;;7.10;5.43;;;14.40;99.90;;;;;;5034676;28;20017;-79
2023/08/10 00:21:34;;;;;;;7.28;5.93;;;14.30;99.90;;;;;;5034896;28;20152;-79
2023/08/10 00:24:01;;;;;;;5.82;5.15;;;14.30;99.90;;;;;;5035233;28;20029;-79
2023/08/10 00:26:26;;;;;;;7.60;5.40;;;14.20;99.90;;;;;;5034826;28;20032;-79
2023/08/10 00:28:52;;;;;;;7.10;5.80;;;14.20;99.90;;;;;;5035584;28;20033;-79
2023/08/10 00:31:18;;;;;;;6.88;5.65;;;14.10;99.90;;;;;;5035392;28;20398;-79
2023/08/10 00:33:43;;;;;;;9.23;6.70;;;14.10;99.90;;;;;;5034570;28;20227;-79
2023/08/10 00:36:09;;;;;;;7.63;6.25;;;14.00;99.90;;;;;;5035514;28;20041;-79
2023/08/10 00:38:40;;;;;;;7.82;6.45;;;14.00;99.90;;;;;;5035285;28;20040;-79
2023/08/10 00:41:06;;;;;;;7.88;5.95;;;13.90;99.90;;;;;;5035427;28;20805;-79
2023/08/10 00:43:33;;;;;;;6.57;5.60;;;13.90;99.90;;;;;;5034088;28;20449;-79
2023/08/10 00:45:59;;;;;;;7.45;5.63;;;13.90;99.90;;;;;;5035002;28;20036;-79
2023/08/10 00:48:25;;;;;;;6.63;5.85;;;13.80;99.90;;;;;;5033463;28;20068;-79
2023/08/10 00:50:52;;;;;;;8.13;5.65;;;13.70;99.90;;;;;;5035397;28;20111;-79
2023/08/10 00:53:18;;;;;;;6.13;5.05;;;13.70;99.90;;;;;;5035978;28;20066;-79
2023/08/10 00:55:46;;;;;;;8.00;5.70;;;13.70;99.90;;;;;;5035229;28;20021;-79
2023/08/10 00:58:12;;;;;;;7.70;5.63;;;13.60;99.90;;;;;;5033072;28;20028;-79
2023/08/10 01:00:38;;;;;;;6.13;5.47;;;13.60;99.90;;;;;;5035160;28;20416;-79
2023/08/10 01:03:04;;;;;;;6.47;5.82;;;13.60;99.90;;;;;;5035397;28;20123;-79
2023/08/10 01:05:34;;;;;;;5.97;5.38;;;13.50;99.90;;;;;;5033985;28;20030;-79
2023/08/10 01:08:10;;;;;;;8.60;5.75;;;13.50;99.90;;;;;;5033315;28;20120;-79
2023/08/10 01:11:14;;;;;;;6.18;5.53;;;13.50;99.90;;;;;;5033768;28;20503;-79
2023/08/10 01:14:03;;;;;;;7.32;5.72;;;13.50;99.90;;;;;;5032343;28;20100;-79
2023/08/10 01:16:31;;;;;;;6.03;5.30;;;13.40;99.90;;;;;;5032753;28;20021;-79
2023/08/10 01:18:58;;;;;;;5.50;4.97;;;13.40;99.90;;;;;;5034758;28;20104;-79
2023/08/10 01:21:32;;;;;;;6.43;4.90;;;13.40;99.90;;;;;;5035417;28;20056;-79
2023/08/10 01:24:03;;;;;;;6.93;5.27;;;13.40;99.90;;;;;;5034793;28;20033;-79
2023/08/10 01:26:29;;;;;;;6.15;4.93;;;13.40;99.90;;;;;;5034235;28;20033;-79
2023/08/10 01:28:56;;;;;;;6.57;5.05;;;13.40;99.90;;;;;;5033768;28;20033;-79
2023/08/10 01:31:22;;;;;;;7.70;5.50;;;13.40;99.90;;;;;;5032673;28;20037;-79
2023/08/10 01:33:48;;;;;;;7.25;6.50;;;13.40;99.90;;;;;;5033650;28;20385;-79
2023/08/10 01:36:13;;;;;;;7.90;6.53;;;13.40;99.90;;;;;;5033469;28;20345;-78
2023/08/10 01:38:39;;;;;;;7.88;6.90;;;13.40;99.90;;;;;;5033550;28;20431;-79
2023/08/10 01:41:04;;;;;;;10.10;7.25;;;13.40;99.90;;;;;;5034223;28;20029;-79
2023/08/10 01:43:30;;;;;;;9.55;7.72;;;13.40;99.90;;;;;;5033700;28;20431;-79
2023/08/10 01:45:56;;;;;;;8.95;7.18;;;13.50;99.90;;;;;;5032778;28;20479;-79
2023/08/10 01:48:28;;;;;;;13.77;7.80;;;13.50;99.90;;;;;;5033169;28;20140;-79
2023/08/10 01:50:57;;;;;;;15.20;7.97;;;13.50;99.90;;;;;;5033459;28;20649;-79
2023/08/10 01:53:31;;;;;;;11.60;8.32;;;13.50;99.90;;;;;;5033392;28;20035;-79
2023/08/10 01:55:57;;;;;;;9.25;7.85;;;13.50;99.90;;;;;;5034235;28;20047;-79
2023/08/10 01:58:23;;;;;;;10.35;7.45;;;13.50;99.90;;;;;;5033962;28;20037;-79
2023/08/10 02:00:51;;;;;;;9.52;6.85;;;13.50;99.90;;;;;;5034707;28;20036;-79
2023/08/10 02:03:17;;;;;;;9.32;7.32;;;13.50;99.90;;;;;;5034012;28;20120;-79
2023/08/10 02:05:43;;;;;;;9.45;6.93;;;13.50;99.90;;;;;;5033848;28;20029;-79
2023/08/10 02:08:08;;;;;;;7.32;6.63;;;13.50;99.90;;;;;;5033102;28;20036;-79
2023/08/10 02:10:34;;;;;;;8.63;6.30;;;13.50;99.90;;;;;;5033524;28;20105;-79
2023/08/10 02:12:59;;;;;;;10.35;6.60;;;13.50;99.90;;;;;;5033235;28;20026;-79
2023/08/10 02:15:25;;;;;;;11.18;7.05;;;13.50;99.90;;;;;;5034008;28;20036;-79
2023/08/10 02:17:51;;;;;;;8.32;6.55;;;13.50;99.90;;;;;;5033418;28;20021;-79
2023/08/10 02:20:17;;;;;;;9.45;6.38;;;13.50;99.90;;;;;;5034100;28;20040;-79
2023/08/10 02:22:47;;;;;;;6.80;6.10;;;13.50;99.90;;;;;;5033939;28;20021;-79
2023/08/10 02:25:13;;;;;;;7.45;6.50;;;13.50;99.90;;;;;;5034050;28;20049;-79
2023/08/10 02:27:42;;;;;;;10.23;6.95;;;13.50;99.90;;;;;;5032524;28;20112;-79
2023/08/10 02:30:09;;;;;;;8.45;6.72;;;13.50;99.90;;;;;;5033036;28;20033;-79
2023/08/10 02:32:35;;;;;;;7.45;6.65;;;13.50;99.90;;;;;;5033378;28;20519;-79
2023/08/10 02:35:00;;;;;;;8.57;7.22;;;13.50;99.90;;;;;;5034403;28;20029;-79
2023/08/10 02:37:26;;;;;;;8.32;7.20;;;13.50;99.90;;;;;;5030950;28;20029;-79
2023/08/10 02:39:52;;;;;;;8.25;7.35;;;13.50;99.90;;;;;;5034430;28;20085;-79
2023/08/10 02:42:17;;;;;;;9.13;8.23;;;13.50;99.90;;;;;;5033442;28;21139;-79
2023/08/10 02:44:44;;;;;;;8.93;7.82;;;13.50;99.90;;;;;;5034218;28;20056;-79
2023/08/10 02:47:10;;;;;;;9.23;8.18;;;13.50;99.90;;;;;;5032468;28;20114;-79
2023/08/10 02:49:35;;;;;;;9.68;8.20;;;13.60;99.90;;;;;;5032198;28;20029;-79
2023/08/10 02:52:01;;;;;;;11.20;8.80;;;13.60;99.90;;;;;;5033813;28;21544;-79
2023/08/10 02:54:27;;;;;;;11.30;9.82;;;13.60;99.90;;;;;;5032882;28;20072;-79
2023/08/10 02:56:52;;;;;;;11.57;9.43;;;13.60;99.90;;;;;;5032661;28;20080;-79
2023/08/10 02:59:18;;;;;;;15.43;9.43;;;13.60;99.90;;;;;;5033358;28;20032;-79
2023/08/10 03:01:45;;;;;;;12.50;9.77;;;13.60;99.90;;;;;;5033074;28;20028;-79
2023/08/10 03:04:11;;;;;;;11.07;9.57;;;13.60;99.90;;;;;;5031511;28;20029;-79
2023/08/10 03:06:37;;;;;;;13.18;10.10;;;13.60;99.90;;;;;;5032301;28;20395;-79
2023/08/10 03:09:04;;;;;;;12.25;10.05;;;13.70;99.90;;;;;;5033113;28;20043;-79
2023/08/10 03:11:30;;;;;;;14.05;9.98;;;13.70;99.90;;;;;;5030215;28;20032;-79
2023/08/10 03:13:55;;;;;;;12.07;10.43;;;13.70;99.90;;;;;;5032153;28;20034;-80
2023/08/10 03:16:21;;;;;;;11.52;9.85;;;13.70;99.90;;;;;;5032127;28;20046;-79
2023/08/10 03:18:47;;;;;;;13.38;10.85;;;13.70;99.90;;;;;;5033379;28;20080;-79
2023/08/10 03:21:12;;;;;;;11.00;9.80;;;13.70;99.90;;;;;;5033185;28;20609;-79
2023/08/10 03:23:38;;;;;;;12.65;10.52;;;13.70;99.90;;;;;;5032716;28;20030;-79
2023/08/10 03:26:04;;;;;;;11.68;10.10;;;13.70;99.90;;;;;;5031673;28;20025;-79
2023/08/10 03:28:29;;;;;;;12.57;9.98;;;13.70;99.90;;;;;;5032151;28;20033;-79
2023/08/10 03:30:55;;;;;;;12.35;10.50;;;13.70;99.90;;;;;;5031854;28;20037;-79
2023/08/10 03:33:20;;;;;;;11.57;9.80;;;13.70;99.90;;;;;;5032257;28;20025;-79
2023/08/10 03:35:46;;;;;;;13.43;9.75;;;13.70;99.90;;;;;;5032394;28;20037;-79
2023/08/10 03:38:12;;;;;;;13.80;9.57;;;13.70;99.90;;;;;;5031656;28;20025;-79
2023/08/10 03:40:38;;;;;;;12.02;9.82;;;13.70;99.90;;;;;;5032877;28;20037;-79
2023/08/10 03:43:04;;;;;;;10.63;9.52;;;13.70;99.90;;;;;;5031638;28;20178;-79
2023/08/10 03:45:29;;;;;;;11.48;9.32;;;13.70;99.90;;;;;;5031726;28;20112;-79
2023/08/10 03:47:55;;;;;;;10.73;9.35;;;13.70;99.90;;;;;;5030863;28;20025;-79
2023/08/10 03:50:20;;;;;;;11.15;9.95;;;13.60;99.90;;;;;;5031124;28;20092;-79
2023/08/10 03:52:46;;;;;;;13.18;9.52;;;13.60;99.90;;;;;;5031869;28;20025;-79
2023/08/10 03:55:13;;;;;;;11.80;9.65;;;13.60;99.90;;;;;;5031979;28;20377;-79
2023/08/10 03:57:39;;;;;;;10.55;9.45;;;13.60;99.90;;;;;;5031944;28;20078;-79
2023/08/10 04:00:05;;;;;;;10.27;9.18;;;13.50;99.90;;;;;;5031990;28;20037;-79
2023/08/10 04:02:31;;;;;;;10.38;9.27;;;13.60;99.90;;;;;;5031729;28;20661;-79
2023/08/10 04:04:56;;;;;;;11.38;9.15;;;13.60;99.90;;;;;;5032330;28;20030;-79
2023/08/10 04:07:22;;;;;;;9.80;8.80;;;13.50;99.90;;;;;;5032035;28;20871;-79
2023/08/10 04:09:47;;;;;;;10.07;9.05;;;13.50;99.90;;;;;;5031857;28;20553;-79
2023/08/10 04:12:14;;;;;;;10.02;8.85;;;13.50;99.90;;;;;;5030871;28;21038;-79
2023/08/10 04:14:40;;;;;;;11.32;8.57;;;13.60;99.90;;;;;;5032380;28;20060;-80
2023/08/10 04:17:06;;;;;;;10.45;8.60;;;13.60;99.90;;;;;;5032791;28;20090;-80
2023/08/10 04:19:31;;;;;;;8.75;7.85;;;13.60;99.90;;;;;;5033794;28;20029;-79
2023/08/10 04:21:57;;;;;;;9.15;7.85;;;13.60;99.90;;;;;;5034261;28;20048;-79
2023/08/10 04:24:23;;;;;;;9.68;8.40;;;13.60;99.90;;;;;;5032445;28;20072;-80
2023/08/10 04:26:48;;;;;;;9.40;8.25;;;13.60;99.90;;;;;;5034099;28;20029;-80
2023/08/10 04:29:14;;;;;;;9.65;8.68;;;13.60;99.90;;;;;;5033430;28;20060;-80
2023/08/10 04:31:40;;;;;;;9.07;8.13;;;13.60;99.90;;;;;;5034014;28;20029;-79
2023/08/10 04:34:05;;;;;;;8.25;7.45;;;13.60;99.90;;;;;;5034417;28;20041;-80
2023/08/10 04:36:33;;;;;;;10.32;7.97;;;13.70;99.90;;;;;;5032105;28;20018;-80
2023/08/10 04:38:59;;;;;;;9.18;8.02;;;13.70;99.90;;;;;;5034937;28;20045;-79
2023/08/10 04:41:24;;;;;;;9.13;7.65;;;13.70;99.90;;;;;;5033276;28;20025;-80
2023/08/10 04:43:50;;;;;;;8.48;7.57;;;13.70;99.90;;;;;;5033051;28;20897;-79
2023/08/10 04:46:15;;;;;;;8.85;7.90;;;13.70;99.90;;;;;;5031987;28;20024;-79
2023/08/10 04:48:41;;;;;;;8.73;7.60;;;13.70;99.90;;;;;;5025833;28;20068;-80
2023/08/10 04:51:07;;;;;;;9.05;7.05;;;13.70;99.90;;;;;;5032791;28;20033;-80
2023/08/10 04:53:32;;;;;;;9.05;7.50;;;13.70;99.90;;;;;;5032644;28;20129;-80
2023/08/10 04:55:58;;;;;;;8.38;7.57;;;13.70;99.90;;;;;;5032666;28;20108;-79
2023/08/10 04:58:24;;;;;;;8.30;7.43;;;13.80;99.90;;;;;;5031735;28;21102;-80
2023/08/10 05:00:52;;;;;;;10.75;8.00;;;13.80;99.90;;;;;;5032578;28;20513;-79
2023/08/10 05:03:20;;;;;;;8.60;7.70;;;13.80;99.90;;;;;;5031816;28;20041;-79
2023/08/10 05:05:45;;;;;;;8.05;7.25;;;13.90;99.90;;;;;;5032416;28;20107;-80
2023/08/10 05:08:11;;;;;;;8.45;7.65;;;14.00;99.90;;;;;;5033180;28;20112;-80
2023/08/10 05:10:37;;;;;;;9.50;7.88;;;14.00;99.90;;;;;;5033965;28;20029;-79
2023/08/10 05:13:04;;;;;;;9.90;8.20;;;14.00;99.90;;;;;;5035445;28;20109;-80
2023/08/10 05:15:29;;;;;;;11.85;9.55;;;14.10;99.90;;;;;;5035704;28;20052;-80
2023/08/10 05:17:55;;;;;;;8.35;7.55;;;14.10;99.90;;;;;;5035968;28;20467;-79
2023/08/10 05:20:21;;;;;;;8.55;7.70;;;14.20;99.90;;;;;;5033680;28;20059;-80
2023/08/10 05:22:49;;;;;;;10.70;8.20;;;14.20;99.90;;;;;;5034792;28;20492;-79
2023/08/10 05:25:15;;;;;;;10.65;7.90;;;14.30;99.90;;;;;;5028142;28;20033;-80
2023/08/10 05:27:40;;;;;;;7.70;6.88;;;14.30;99.90;;;;;;5025721;28;20427;-80
2023/08/10 05:30:11;;;;;;;9.52;6.43;;;14.50;99.90;;;;;;5025047;28;20036;-80
2023/08/10 05:32:43;;;;;;;11.63;6.70;;;14.60;99.90;;;;;;5027153;28;20036;-80
2023/08/10 05:35:10;;;;;;;7.47;6.78;;;14.60;99.90;;;;;;5027727;28;20091;-80
2023/08/10 05:37:36;;;;;;;10.05;6.75;;;14.60;99.90;;;;;;5025196;28;20025;-80
2023/08/10 05:40:06;;;;;;;9.90;6.95;;;14.60;99.90;;;;;;5025513;28;20028;-80
2023/08/10 05:42:32;;;;;;;8.40;7.22;;;14.60;99.90;;;;;;5020268;28;20177;-80
2023/08/10 05:44:57;;;;;;;7.88;6.78;;;14.70;99.90;;;;;;5025398;28;20021;-79
2023/08/10 05:47:23;;;;;;;7.55;6.75;;;14.70;99.90;;;;;;5022418;28;20035;-80
2023/08/10 05:49:48;;;;;;;11.90;6.07;;;14.80;99.90;;;;;;5022613;28;20026;-80
2023/08/10 05:52:14;;;;;;;9.30;6.68;;;14.80;99.90;;;;;;5024394;28;20042;-80
2023/08/10 05:54:39;;;;;;;8.38;5.95;;;14.80;99.90;;;;;;5027807;28;20048;-80
2023/08/10 05:57:05;;;;;;;6.65;6.00;;;14.90;99.90;;;;;;5027287;28;20116;-80
2023/08/10 05:59:31;;;;;;;7.60;5.80;;;14.90;99.90;;;;;;5027044;28;20048;-80
2023/08/10 06:01:57;;;;;;;7.28;5.60;;;15.00;99.90;;;;;;5026733;28;20026;-80
2023/08/10 06:04:23;;;;;;;7.80;5.65;;;15.00;99.90;;;;;;5028075;28;20059;-84
2023/08/10 06:06:49;;;;;;;7.97;5.63;;;15.10;99.90;;;;;;5029897;28;20091;-79
2023/08/10 06:09:16;;;;;;;6.60;5.05;;;15.20;99.90;;;;;;5033542;28;20033;-80
2023/08/10 06:11:42;;;;;;;7.75;5.10;;;15.30;99.90;;;;;;5033558;28;20021;-79
2023/08/10 06:14:07;;;;;;;6.15;5.32;;;15.40;99.90;;;;;;5032347;28;20036;-79
2023/08/10 06:16:33;;;;;;;5.85;5.10;;;15.40;99.90;;;;;;5032434;28;20021;-79
2023/08/10 06:18:59;;;;;;;5.45;4.50;;;15.50;99.90;;;;;;5033334;28;20029;-79
2023/08/10 06:21:25;;;;;;;8.77;4.63;;;15.60;99.90;;;;;;5033072;28;20033;-80
2023/08/10 06:23:50;;;;;;;6.05;4.32;;;15.60;99.90;;;;;;5032507;28;20037;-79
2023/08/10 06:26:16;;;;;;;6.32;4.60;;;15.80;99.90;;;;;;5030834;28;20049;-79
2023/08/10 06:28:43;;;;;;;5.60;4.57;;;15.80;99.90;;;;;;5027249;28;20764;-79
2023/08/10 06:31:10;;;;;;;8.13;4.72;;;15.80;99.90;;;;;;5025334;28;20145;-79
2023/08/10 06:33:36;;;;;;;5.18;4.65;;;15.90;99.90;;;;;;5026500;28;20029;-79
2023/08/10 06:36:03;;;;;;;7.00;4.75;;;16.00;99.90;;;;;;5025052;28;20123;-80
2023/08/10 06:38:29;;;;;;;5.35;4.22;;;16.10;99.90;;;;;;5025143;28;20038;-80
2023/08/10 06:40:55;;;;;;;5.72;4.07;;;16.10;99.90;;;;;;5026471;28;20040;-79
2023/08/10 06:43:21;;;;;;;5.18;4.20;;;16.10;99.90;;;;;;5027520;28;20036;-80
2023/08/10 06:45:47;;;;;;;5.70;4.40;;;16.10;99.90;;;;;;5026012;28;20083;-80
2023/08/10 06:48:12;;;;;;;7.22;4.25;;;16.10;99.90;;;;;;5028990;28;20029;-80
2023/08/10 06:50:39;;;;;;;5.78;4.22;;;16.10;99.90;;;;;;5032385;28;20116;-79
2023/08/10 06:53:05;;;;;;;7.20;4.78;;;16.10;99.90;;;;;;5031639;28;20097;-79
2023/08/10 06:55:31;;;;;;;6.18;4.65;;;16.00;99.90;;;;;;5030043;28;20035;-80
2023/08/10 06:57:57;;;;;;;6.43;3.88;;;16.00;99.90;;;;;;5029034;28;20029;-80
2023/08/10 07:00:24;;;;;;;5.38;4.10;;;16.00;99.90;;;;;;5028802;28;20106;-80
2023/08/10 07:02:53;;;;;;;6.05;4.07;;;16.20;99.90;;;;;;5032396;28;20044;-80
2023/08/10 07:05:23;;;;;;;6.05;3.70;;;16.20;99.90;;;;;;5031370;28;20124;-79
2023/08/10 07:07:49;;;;;;;6.18;3.63;;;16.20;99.90;;;;;;5030079;28;20393;-79
2023/08/10 07:10:15;;;;;;;6.43;3.53;;;16.20;99.90;;;;;;5031457;28;20170;-80
2023/08/10 07:12:42;;;;;;;4.88;3.47;;;16.20;99.90;;;;;;5029166;28;20021;-80
2023/08/10 07:15:08;;;;;;;5.90;3.28;;;16.20;99.90;;;;;;5031077;28;20689;-80
2023/08/10 07:17:34;;;;;;;10.45;3.92;;;16.20;99.90;;;;;;5031071;28;20025;-80
2023/08/10 07:20:00;;;;;;;4.50;2.78;;;16.20;99.90;;;;;;5031101;28;21519;-80
2023/08/10 07:22:26;;;;;;;5.03;2.97;;;16.20;99.90;;;;;;5031177;28;20038;-80
2023/08/10 07:24:51;;;;;;;3.30;2.55;;;16.20;99.90;;;;;;5031762;28;20766;-80
2023/08/10 07:27:17;;;;;;;6.05;3.25;;;16.20;99.90;;;;;;5029844;28;20111;-80
2023/08/10 07:29:43;;;;;;;4.45;3.00;;;16.30;99.90;;;;;;5029205;28;20112;-80
2023/08/10 07:32:08;;;;;;;3.88;2.60;;;16.40;99.90;;;;;;5030709;28;20043;-79
2023/08/10 07:34:34;;;;;;;4.55;2.78;;;16.40;99.90;;;;;;5031381;28;20036;-79
2023/08/10 07:37:00;;;;;;;3.30;2.50;;;16.50;99.90;;;;;;5029035;28;20025;-80
2023/08/10 07:39:26;;;;;;;6.32;2.50;;;16.50;99.90;;;;;;5030379;28;20040;-80
2023/08/10 07:41:52;;;;;;;3.63;2.30;;;16.50;99.90;;;;;;5031540;28;20040;-80
2023/08/10 07:44:18;;;;;;;4.30;2.70;;;16.50;99.90;;;;;;5030639;28;20684;-80
2023/08/10 07:46:46;;;;;;;5.47;2.58;;;16.60;99.90;;;;;;5031098;28;20101;-80
2023/08/10 07:49:12;;;;;;;4.28;2.53;;;16.60;99.90;;;;;;5030666;28;20163;-80
2023/08/10 07:51:38;;;;;;;3.88;2.40;;;16.70;99.90;;;;;;5028474;28;20029;-75
2023/08/10 07:54:04;;;;;;;5.38;2.30;;;16.80;99.90;;;;;;5027607;28;20120;-75
2023/08/10 07:56:30;;;;;;;4.85;2.47;;;16.80;99.90;;;;;;5026341;28;20059;-74
2023/08/10 07:58:55;;;;;;;2.90;2.20;;;16.80;99.90;;;;;;5028187;28;20539;-75
2023/08/10 08:01:21;;;;;;;4.03;2.63;;;16.80;99.90;;;;;;5027067;28;20101;-75
2023/08/10 08:03:46;;;;;;;4.78;2.72;;;16.80;99.90;;;;;;5028721;28;20067;-74
2023/08/10 08:06:12;;;;;;;3.47;2.03;;;16.80;99.90;;;;;;5027655;28;20036;-75
2023/08/10 08:08:38;;;;;;;4.32;2.00;;;16.80;99.90;;;;;;5028429;28;20033;-75
2023/08/10 08:11:03;;;;;;;4.78;2.30;;;16.90;99.90;;;;;;5027498;28;20145;-75
2023/08/10 08:13:29;;;;;;;4.57;2.38;;;16.90;99.90;;;;;;5027906;28;20029;-75
2023/08/10 08:15:54;;;;;;;3.58;2.00;;;17.00;99.90;;;;;;5027411;28;20040;-74
2023/08/10 08:18:46;;;;;;;4.65;2.58;;;17.00;99.90;;;;;;5027162;28;20024;-75
2023/08/10 08:21:14;;;;;;;3.00;2.17;;;17.10;99.90;;;;;;5027861;28;20094;-74
2023/08/10 08:23:40;;;;;;;3.67;2.20;;;17.10;99.90;;;;;;5027547;28;20398;-72
2023/08/10 08:26:06;;;;;;;3.13;2.05;;;17.20;99.90;;;;;;5032448;28;20017;-80
2023/08/10 08:28:31;;;;;;;2.72;1.90;;;17.20;99.90;;;;;;5032794;28;20040;-80
2023/08/10 08:30:57;;;;;;;3.88;1.65;;;17.30;99.90;;;;;;5033396;28;20030;-80
2023/08/10 08:33:22;;;;;;;6.30;1.80;;;17.40;99.90;;;;;;5035075;28;20025;-80
2023/08/10 08:35:48;;;;;;;3.50;1.80;;;17.50;99.90;;;;;;5033710;28;20061;-79
2023/08/10 08:38:14;;;;;;;3.50;1.95;;;17.50;99.90;;;;;;5033263;28;20032;-80
2023/08/10 08:40:40;;;;;;;4.90;2.08;;;17.40;99.90;;;;;;5036188;28;20039;-80
2023/08/10 08:43:06;;;;;;;2.95;1.80;;;17.50;99.90;;;;;;5037248;28;20041;-80
2023/08/10 08:45:32;;;;;;;4.60;1.85;;;17.50;99.90;;;;;;5038354;28;20028;-80
2023/08/10 08:47:59;;;;;;;4.80;2.17;;;17.60;99.90;;;;;;5035727;28;20033;-80
2023/08/10 08:50:27;;;;;;;3.15;2.10;;;17.70;99.90;;;;;;5036865;28;20105;-80
2023/08/10 08:52:53;;;;;;;3.53;1.90;;;17.80;99.90;;;;;;5038606;28;20025;-80
2023/08/10 08:55:19;;;;;;;2.47;1.83;;;17.80;99.90;;;;;;5037109;28;20037;-80
2023/08/10 08:57:45;;;;;;;2.75;1.80;;;17.90;99.90;;;;;;5036247;28;20032;-80
2023/08/10 09:00:11;;;;;;;2.25;1.60;;;17.90;99.90;;;;;;5035707;28;20062;-80
2023/08/10 09:02:37;;;;;;;4.85;1.70;;;18.00;99.90;;;;;;5034567;28;20025;-80
2023/08/10 09:05:03;;;;;;;3.17;1.58;;;18.00;99.90;;;;;;5035852;28;20083;-80
2023/08/10 09:07:29;;;;;;;2.85;1.80;;;18.10;99.90;;;;;;5033140;28;21101;-80
2023/08/10 09:09:55;;;;;;;2.67;1.80;;;18.20;99.90;;;;;;5034259;28;20018;-81
2023/08/10 09:12:39;;;;;;;3.00;1.63;;;18.30;99.90;;;;;;5036023;28;20041;-80
2023/08/10 09:15:06;;;;;;;4.78;1.80;;;18.40;99.90;;;;;;5035099;28;20111;-80
2023/08/10 09:17:34;;;;;;;2.35;1.40;;;18.50;99.90;;;;;;5034808;28;20033;-80
2023/08/10 09:20:00;;;;;;;4.28;1.90;;;18.50;99.90;;;;;;5034190;28;20369;-80
2023/08/10 09:22:39;;;;;;;2.58;1.58;;;18.60;99.90;;;;;;5034989;28;20017;-80
2023/08/10 09:25:09;;;;;;;3.17;1.70;;;18.70;99.90;;;;;;5035192;28;20044;-80
2023/08/10 09:27:34;;;;;;;2.85;1.55;;;18.90;99.90;;;;;;5033865;28;20029;-80
2023/08/10 09:30:02;;;;;;;2.80;1.75;;;19.00;99.90;;;;;;5034020;28;20033;-80
2023/08/10 09:32:28;;;;;;;3.92;2.00;;;19.10;99.90;;;;;;5033047;28;20384;-80
2023/08/10 09:34:53;;;;;;;2.20;1.50;;;19.40;99.90;;;;;;5033792;28;20021;-80
2023/08/10 09:37:20;;;;;;;2.58;1.55;;;19.60;99.90;;;;;;5033114;28;20494;-79
2023/08/10 09:39:46;;;;;;;3.55;1.60;;;19.80;99.90;;;;;;5032972;28;20059;-79
2023/08/10 09:42:12;;;;;;;5.40;1.40;;;20.10;99.90;;;;;;5031827;28;20123;-79
2023/08/10 09:44:45;;;;;;;3.35;1.80;;;20.30;99.90;;;;;;5031966;28;20036;-80
2023/08/10 09:47:14;;;;;;;2.88;1.77;;;20.50;99.90;;;;;;5031330;28;20029;-80
2023/08/10 09:50:05;;;;;;;3.88;1.58;;;20.70;99.90;;;;;;5031284;28;20083;-80
2023/08/10 09:52:32;;;;;;;1.80;1.40;;;20.90;99.90;;;;;;5031374;28;20396;-79
2023/08/10 09:54:58;;;;;;;3.65;1.50;;;21.10;99.90;;;;;;5032280;28;20041;-80
2023/08/10 09:57:25;;;;;;;3.55;1.38;;;21.30;99.90;;;;;;5029323;28;20144;-79
2023/08/10 09:59:51;;;;;;;4.07;1.42;;;21.60;99.90;;;;;;5030319;28;20032;-79
2023/08/10 10:02:19;;;;;;;3.42;1.35;;;21.80;99.90;;;;;;5028959;28;20029;-79
2023/08/10 10:04:45;;;;;;;3.00;1.30;;;21.90;99.90;;;;;;5029908;28;21390;-80
2023/08/10 10:07:12;;;;;;;5.38;1.63;;;22.00;99.90;;;;;;5028549;28;20040;-79
2023/08/10 10:09:40;;;;;;;2.35;1.92;;;22.10;99.90;;;;;;5030602;28;20383;-79
2023/08/10 10:12:13;;;;;;;2.28;1.50;;;22.10;99.90;;;;;;5029399;28;20116;-79
2023/08/10 10:14:42;;;;;;;1.70;1.40;;;22.20;99.90;;;;;;5031096;28;20033;-79
2023/08/10 10:17:10;;;;;;;1.70;1.30;;;22.30;99.90;;;;;;5030676;28;20029;-79
2023/08/10 10:19:35;;;;;;;2.40;1.40;;;22.30;99.90;;;;;;5030615;28;20127;-79
2023/08/10 10:22:02;;;;;;;3.00;1.63;;;22.60;99.90;;;;;;5031470;28;20037;-79
2023/08/10 10:24:29;;;;;;;2.80;1.50;;;22.60;99.90;;;;;;5029017;28;20030;-79
2023/08/10 10:27:13;;;;;;;2.92;1.42;;;22.70;99.90;;;;;;5029782;28;20096;-79
2023/08/10 10:30:01;;;;;;;3.13;1.55;;;22.80;99.90;;;;;;5029215;28;20989;-79
2023/08/10 10:32:27;;;;;;;5.57;1.65;;;22.80;99.90;;;;;;5030861;28;20037;-79
2023/08/10 10:34:53;;;;;;;4.88;1.75;;;23.00;99.90;;;;;;5031030;28;20032;-79
2023/08/10 10:37:30;;;;;;;2.67;1.40;;;22.90;99.90;;;;;;5030000;28;20024;-79
2023/08/10 10:40:19;;;;;;;2.05;1.50;;;22.90;99.90;;;;;;5028655;28;20033;-79
2023/08/10 10:43:03;;;;;;;2.42;1.67;;;23.00;99.90;;;;;;5029060;28;20030;-79
2023/08/10 10:45:39;;;;;;;3.83;1.60;;;23.20;99.90;;;;;;5031499;28;20036;-79
2023/08/10 10:48:06;;;;;;;2.40;1.48;;;23.30;99.90;;;;;;5030618;28;20041;-79
2023/08/10 10:50:32;;;;;;;3.33;1.60;;;23.50;99.90;;;;;;5030749;28;20141;-79
2023/08/10 10:52:58;;;;;;;3.10;1.52;;;23.70;99.90;;;;;;5031746;28;20058;-79
2023/08/10 10:55:49;;;;;;;2.65;1.80;;;23.90;99.90;;;;;;5032484;28;20034;-79
2023/08/10 10:58:15;;;;;;;4.80;1.70;;;23.90;99.90;;;;;;5030659;28;20033;-79
2023/08/10 11:00:43;;;;;;;4.68;2.00;;;24.10;99.90;;;;;;5033320;28;20161;-80
2023/08/10 11:03:10;;;;;;;2.72;1.75;;;24.40;99.90;;;;;;5030527;28;20032;-73
2023/08/10 11:05:36;;;;;;;2.80;1.60;;;24.40;99.90;;;;;;5029005;28;20030;-73
2023/08/10 11:08:03;;;;;;;2.63;1.55;;;24.30;99.90;;;;;;5028798;28;20408;-88
2023/08/10 11:10:37;;;;;;;3.72;1.63;;;24.40;99.90;;;;;;5033221;28;20652;-80
2023/08/10 11:13:05;;;;;;;4.60;1.80;;;24.50;99.90;;;;;;5032517;28;20028;-80
2023/08/10 11:15:31;;;;;;;4.60;1.63;;;24.40;99.90;;;;;;5033139;28;20111;-79
2023/08/10 11:17:57;;;;;;;2.47;1.50;;;24.30;99.90;;;;;;5032889;28;20028;-80
2023/08/10 11:20:23;;;;;;;2.13;1.38;;;24.40;99.90;;;;;;5031076;28;20040;-80
2023/08/10 11:22:51;;;;;;;2.13;1.60;;;24.60;99.90;;;;;;5031591;28;20051;-80
2023/08/10 11:25:25;;;;;;;2.05;1.45;;;24.80;99.90;;;;;;5033513;28;20022;-80
2023/08/10 11:27:53;;;;;;;2.95;1.80;;;24.80;99.90;;;;;;5032949;28;20044;-80
2023/08/10 11:30:21;;;;;;;2.80;1.60;;;24.90;99.90;;;;;;5032254;28;20072;-80
2023/08/10 11:32:49;;;;;;;4.28;1.58;;;24.90;99.90;;;;;;5032334;28;20083;-80
2023/08/10 11:35:21;;;;;;;4.25;1.85;;;25.00;99.90;;;;;;5032763;28;20048;-80
2023/08/10 11:37:48;;;;;;;3.85;1.77;;;24.90;99.90;;;;;;5032779;28;20025;-80
2023/08/10 11:40:15;;;;;;;3.88;1.60;;;25.20;99.90;;;;;;5032593;28;20030;-80
2023/08/10 11:42:49;;;;;;;2.95;1.50;;;25.10;99.90;;;;;;5034302;28;20029;-80
2023/08/10 11:45:20;;;;;;;2.20;1.55;;;25.20;99.90;;;;;;5032395;28;20048;-80
2023/08/10 11:47:53;;;;;;;3.30;1.80;;;25.20;99.90;;;;;;5032241;28;20068;-80
2023/08/10 11:50:21;;;;;;;3.03;1.80;;;25.30;99.90;;;;;;5032451;28;20071;-80
2023/08/10 11:52:51;;;;;;;3.20;1.75;;;25.30;99.90;;;;;;5032481;28;20499;-80
2023/08/10 11:55:18;;;;;;;2.67;1.75;;;25.50;99.90;;;;;;5031816;28;20040;-80
2023/08/10 11:57:51;;;;;;;2.22;1.70;;;25.50;99.90;;;;;;5030981;28;20018;-80
2023/08/10 12:00:30;;;;;;;3.25;1.90;;;25.40;99.90;;;;;;5030065;28;20032;-80
2023/08/10 12:03:16;;;;;;;2.85;1.70;;;25.40;99.90;;;;;;5030055;28;20422;-80
2023/08/10 12:05:49;;;;;;;2.30;1.60;;;25.10;99.90;;;;;;5029374;28;20167;-80
2023/08/10 12:08:36;;;;;;;3.65;1.63;;;25.10;99.90;;;;;;5028940;28;20032;-80
2023/08/10 12:11:09;;;;;;;2.65;1.30;;;25.30;99.90;;;;;;5029339;28;20499;-80
2023/08/10 12:13:48;;;;;;;5.95;1.70;;;25.40;99.90;;;;;;5029885;28;20017;-80
2023/08/10 12:16:20;;;;;;;2.72;1.60;;;25.40;99.90;;;;;;5032380;28;20039;-85
2023/08/10 12:18:46;;;;;;;2.20;1.73;;;25.40;99.90;;;;;;5034905;28;20960;-80
2023/08/10 12:21:12;;;;;;;2.40;1.63;;;25.60;99.10;;;;;;5032680;28;20029;-80
2023/08/10 12:23:37;;;;;;;3.72;1.77;;;25.40;99.90;;;;;;5034767;28;20104;-77
2023/08/10 12:26:03;;;;;;;2.65;1.67;;;25.30;99.90;;;;;;5031795;28;20025;-74
2023/08/10 12:28:29;;;;;;;3.40;1.60;;;25.40;99.90;;;;;;5027064;28;20185;-74
2023/08/10 12:30:55;;;;;;;2.38;1.52;;;25.60;99.90;;;;;;5030591;28;20051;-74
2023/08/10 12:33:20;;;;;;;4.68;1.90;;;25.90;99.80;;;;;;5030980;28;20029;-74
2023/08/10 12:35:46;;;;;;;3.00;1.48;;;26.40;98.80;;;;;;5031888;28;20031;-74
2023/08/10 12:38:12;;;;;;;2.70;1.55;;;26.10;98.20;;;;;;5029400;28;20459;-74
2023/08/10 12:40:39;;;;;;;2.55;1.60;;;25.90;99.40;;;;;;5027050;28;20103;-74
2023/08/10 12:43:05;;;;;;;2.53;1.70;;;25.90;99.90;;;;;;5025134;28;20021;-74
2023/08/10 12:45:31;;;;;;;2.30;1.50;;;26.00;98.90;;;;;;5023996;28;20726;-74
2023/08/10 12:47:56;;;;;;;3.15;1.60;;;26.00;98.10;;;;;;5027770;28;20491;-74